Ncc Najd — HZAK — position and weather

sailwx.info

Track history (hours):
 
Tides and Currents Weather Stations Pressure Air Temp Water Temp Dewpoint Dewpoint Depression Visibility Wind Speed Wind Dir Waves Ship Positions

Ncc Najd

Last reported at 2017-Feb-04 15:14 UTC. Time now 2017-Feb-23 20:37 UTC.
Position N 02°03' E 102°09'.
Warning: this ship's position is 19 days out of date.

Length 183 m; draft 7.6 m.

Type: Tanker. MMSI: 403579000.

Date/timePositionNaut miles runAvg speedWind from/ knotsBaromVisibWave heightAir tempDewpointWater temp
2017-Feb-04 15:14N 02°03' E 102°09'1014.2
2017-Feb-04 14:32N 01°57' E 102°17'1414.8
2017-Feb-04 13:33N 01°51' E 102°31'1615.2
2017-Feb-04 12:32N 01°44' E 102°44'7013.7
2017-Feb-04 07:23N 01°10' E 103°46'2 2.7
2017-Feb-04 06:33N 01°11' E 103°48'8 8.5
2017-Feb-04 05:33N 01°14' E 103°56'  
2017-Jan-30 22:27N 22°32' E 119°49'1715.7
2017-Jan-30 21:22N 22°49' E 119°49'48113.4
2017-Jan-29 09:23N 30°33' E 122°12'1112.8
2017-Jan-29 08:33N 30°31' E 122°00'41 0.9
2017-Jan-27 09:32N 31°03' E 122°30'1110.8
2017-Jan-27 08:33N 31°06' E 122°19'1514.5
2017-Jan-27 07:33N 31°14' E 122°04'1313.4
2017-Jan-27 06:33N 31°17' E 121°49'1212.0
2017-Jan-27 05:33N 31°22' E 121°37'9 8.5
2017-Jan-27 04:34N 31°27' E 121°28'8 7.7
2017-Jan-27 03:34N 31°32' E 121°21'1312.9
2017-Jan-27 02:34N 31°41' E 121°11'1413.7
2017-Jan-27 01:33N 31°47' E 120°56'2512.2
2017-Jan-26 23:32N 32°01' E 120°32'4 4.1
2017-Jan-26 22:30N 31°60' E 120°27'0 0.0
2017-Jan-26 14:20N 31°60' E 120°27'0 0.0
2017-Jan-26 12:14N 31°60' E 120°27'0 0.0
2017-Jan-26 11:32N 31°60' E 120°27'0 0.0
2017-Jan-25 20:20N 31°60' E 120°27'0 0.0
2017-Jan-25 19:32N 31°60' E 120°27'  
Track history (hours):
 
Tides and Currents Weather Stations Pressure Air Temp Water Temp Dewpoint Dewpoint Depression Visibility Wind Speed Wind Dir Waves Ship Positions

Ncc Najd

Last reported at 2017-Feb-04 15:14 UTC. Time now 2017-Feb-23 20:37 UTC.
Position N 02°03' E 102°09'.
Warning: this ship's position is 19 days out of date.

Length 183 m; draft 7.6 m.

Type: Tanker. MMSI: 403579000.

Date/timePositionNaut miles runAvg speedWind from/ knotsBaromVisibWave heightAir tempDewpointWater temp
2017-Feb-04 15:14N 02°03' E 102°09'1014.2
2017-Feb-04 14:32N 01°57' E 102°17'1414.8
2017-Feb-04 13:33N 01°51' E 102°31'1615.2
2017-Feb-04 12:32N 01°44' E 102°44'7013.7
2017-Feb-04 07:23N 01°10' E 103°46'2 2.7
2017-Feb-04 06:33N 01°11' E 103°48'8 8.5
2017-Feb-04 05:33N 01°14' E 103°56'  
2017-Jan-30 22:27N 22°32' E 119°49'1715.7
2017-Jan-30 21:22N 22°49' E 119°49'48113.4
2017-Jan-29 09:23N 30°33' E 122°12'1112.8
2017-Jan-29 08:33N 30°31' E 122°00'41 0.9
2017-Jan-27 09:32N 31°03' E 122°30'1110.8
2017-Jan-27 08:33N 31°06' E 122°19'1514.5
2017-Jan-27 07:33N 31°14' E 122°04'1313.4
2017-Jan-27 06:33N 31°17' E 121°49'1212.0
2017-Jan-27 05:33N 31°22' E 121°37'9 8.5
2017-Jan-27 04:34N 31°27' E 121°28'8 7.7
2017-Jan-27 03:34N 31°32' E 121°21'1312.9
2017-Jan-27 02:34N 31°41' E 121°11'1413.7
2017-Jan-27 01:33N 31°47' E 120°56'2512.2
2017-Jan-26 23:32N 32°01' E 120°32'4 4.1
2017-Jan-26 22:30N 31°60' E 120°27'0 0.0
2017-Jan-26 14:20N 31°60' E 120°27'0 0.0
2017-Jan-26 12:14N 31°60' E 120°27'0 0.0
2017-Jan-26 11:32N 31°60' E 120°27'0 0.0
2017-Jan-25 20:20N 31°60' E 120°27'0 0.0
2017-Jan-25 19:32N 31°60' E 120°27'  

Dump ship's entire track history